sensor_id;sensor_type;location;lat;lon;timestamp;pressure;altitude;pressure_sealevel;temperature;humidity
69027;BME280;56080;47.594;19.116;2022-11-11T00:03:22;101770;;;8.50;89.75
69027;BME280;56080;47.594;19.116;2022-11-11T00:08:16;101768;;;8.55;90.44
69027;BME280;56080;47.594;19.116;2022-11-11T00:13:16;101774;;;8.32;90.39
69027;BME280;56080;47.594;19.116;2022-11-11T00:18:26;101778;;;8.27;90.72
69027;BME280;56080;47.594;19.116;2022-11-11T00:23:26;101786;;;7.95;89.22
69027;BME280;56080;47.594;19.116;2022-11-11T00:28:16;101790;;;7.67;90.16
69027;BME280;56080;47.594;19.116;2022-11-11T00:33:17;101793;;;7.54;90.61
69027;BME280;56080;47.594;19.116;2022-11-11T00:38:26;101788;;;7.34;91.52
69027;BME280;56080;47.594;19.116;2022-11-11T00:43:17;101791;;;7.45;90.73
69027;BME280;56080;47.594;19.116;2022-11-11T00:48:26;101792;;;7.27;91.71
69027;BME280;56080;47.594;19.116;2022-11-11T00:53:23;101802;;;7.23;92.11
69027;BME280;56080;47.594;19.116;2022-11-11T00:58:17;101797;;;7.05;93.65
69027;BME280;56080;47.594;19.116;2022-11-11T01:03:16;101783;;;7.14;92.07
69027;BME280;56080;47.594;19.116;2022-11-11T01:08:17;101781;;;7.06;91.66
69027;BME280;56080;47.594;19.116;2022-11-11T01:18:18;101780;;;6.53;91.85
69027;BME280;56080;47.594;19.116;2022-11-11T01:23:16;101785;;;6.52;92.11
69027;BME280;56080;47.594;19.116;2022-11-11T01:33:17;101786;;;6.43;93.35
69027;BME280;56080;47.594;19.116;2022-11-11T01:38:16;101798;;;6.34;91.54
69027;BME280;56080;47.594;19.116;2022-11-11T01:43:18;101799;;;6.29;92.18
69027;BME280;56080;47.594;19.116;2022-11-11T01:48:38;101792;;;6.28;93.11
69027;BME280;56080;47.594;19.116;2022-11-11T01:53:17;101791;;;6.16;92.58
69027;BME280;56080;47.594;19.116;2022-11-11T01:58:17;101786;;;6.04;93.03
69027;BME280;56080;47.594;19.116;2022-11-11T02:03:17;101784;;;5.74;94.14
69027;BME280;56080;47.594;19.116;2022-11-11T02:08:27;101788;;;5.87;95.30
69027;BME280;56080;47.594;19.116;2022-11-11T02:13:27;101801;;;5.92;95.27
69027;BME280;56080;47.594;19.116;2022-11-11T02:18:16;101801;;;6.07;92.83
69027;BME280;56080;47.594;19.116;2022-11-11T02:23:18;101799;;;5.97;93.66
69027;BME280;56080;47.594;19.116;2022-11-11T02:28:16;101804;;;6.19;93.58
69027;BME280;56080;47.594;19.116;2022-11-11T02:33:17;101802;;;6.23;93.60
69027;BME280;56080;47.594;19.116;2022-11-11T02:38:17;101807;;;6.24;92.19
69027;BME280;56080;47.594;19.116;2022-11-11T02:43:16;101820;;;5.91;91.93
69027;BME280;56080;47.594;19.116;2022-11-11T02:48:16;101822;;;5.88;90.49
69027;BME280;56080;47.594;19.116;2022-11-11T02:53:16;101818;;;5.46;93.07
69027;BME280;56080;47.594;19.116;2022-11-11T02:58:16;101826;;;5.72;91.49
69027;BME280;56080;47.594;19.116;2022-11-11T03:03:17;101834;;;5.60;92.11
69027;BME280;56080;47.594;19.116;2022-11-11T03:08:17;101843;;;5.75;92.92
69027;BME280;56080;47.594;19.116;2022-11-11T03:13:17;101850;;;5.65;93.05
69027;BME280;56080;47.594;19.116;2022-11-11T03:18:17;101858;;;5.79;92.97
69027;BME280;56080;47.594;19.116;2022-11-11T03:23:17;101864;;;5.51;91.19
69027;BME280;56080;47.594;19.116;2022-11-11T03:28:17;101861;;;5.36;92.07
69027;BME280;56080;47.594;19.116;2022-11-11T03:33:17;101868;;;5.12;90.97
69027;BME280;56080;47.594;19.116;2022-11-11T03:38:22;101865;;;5.09;91.79
69027;BME280;56080;47.594;19.116;2022-11-11T03:43:17;101862;;;5.12;91.31
69027;BME280;56080;47.594;19.116;2022-11-11T03:48:16;101863;;;4.98;91.65
69027;BME280;56080;47.594;19.116;2022-11-11T03:53:17;101861;;;5.01;91.39
69027;BME280;56080;47.594;19.116;2022-11-11T03:58:17;101868;;;4.74;91.86
69027;BME280;56080;47.594;19.116;2022-11-11T04:03:26;101876;;;4.82;91.70
69027;BME280;56080;47.594;19.116;2022-11-11T04:08:26;101875;;;4.83;92.21
69027;BME280;56080;47.594;19.116;2022-11-11T04:18:17;101889;;;4.95;91.95
69027;BME280;56080;47.594;19.116;2022-11-11T04:23:16;101894;;;5.02;92.09
69027;BME280;56080;47.594;19.116;2022-11-11T04:28:26;101887;;;5.14;92.65
69027;BME280;56080;47.594;19.116;2022-11-11T04:38:26;101880;;;5.19;92.12
69027;BME280;56080;47.594;19.116;2022-11-11T04:43:17;101893;;;5.07;92.13
69027;BME280;56080;47.594;19.116;2022-11-11T04:48:17;101897;;;5.06;92.17
69027;BME280;56080;47.594;19.116;2022-11-11T04:53:17;101897;;;5.03;92.55
69027;BME280;56080;47.594;19.116;2022-11-11T04:58:18;101901;;;5.07;91.45
69027;BME280;56080;47.594;19.116;2022-11-11T05:03:18;101902;;;4.93;90.87
69027;BME280;56080;47.594;19.116;2022-11-11T05:08:26;101907;;;4.82;91.72
69027;BME280;56080;47.594;19.116;2022-11-11T05:13:34;101901;;;4.95;91.62
69027;BME280;56080;47.594;19.116;2022-11-11T05:18:26;101908;;;4.80;91.08
69027;BME280;56080;47.594;19.116;2022-11-11T05:23:17;101901;;;4.87;91.97
69027;BME280;56080;47.594;19.116;2022-11-11T05:33:17;101902;;;4.74;93.55
69027;BME280;56080;47.594;19.116;2022-11-11T05:38:19;101907;;;4.89;94.05
69027;BME280;56080;47.594;19.116;2022-11-11T05:43:16;101917;;;5.03;93.82
69027;BME280;56080;47.594;19.116;2022-11-11T05:48:16;101924;;;4.89;94.01
69027;BME280;56080;47.594;19.116;2022-11-11T05:53:22;101926;;;4.99;92.16
69027;BME280;56080;47.594;19.116;2022-11-11T05:58:17;101937;;;4.92;91.30
69027;BME280;56080;47.594;19.116;2022-11-11T06:03:16;101929;;;4.79;90.94
69027;BME280;56080;47.594;19.116;2022-11-11T06:08:17;101930;;;4.69;91.15
69027;BME280;56080;47.594;19.116;2022-11-11T06:13:17;101944;;;4.78;90.95
69027;BME280;56080;47.594;19.116;2022-11-11T06:18:17;101944;;;4.76;91.45
69027;BME280;56080;47.594;19.116;2022-11-11T06:23:16;101955;;;4.78;92.13
69027;BME280;56080;47.594;19.116;2022-11-11T06:28:17;101961;;;4.89;92.68
69027;BME280;56080;47.594;19.116;2022-11-11T06:33:17;101964;;;4.83;93.84
69027;BME280;56080;47.594;19.116;2022-11-11T06:38:17;101967;;;5.23;93.63
69027;BME280;56080;47.594;19.116;2022-11-11T06:43:17;101964;;;5.17;94.85
69027;BME280;56080;47.594;19.116;2022-11-11T06:48:16;101972;;;5.71;96.69
69027;BME280;56080;47.594;19.116;2022-11-11T06:53:17;101970;;;5.95;95.88
69027;BME280;56080;47.594;19.116;2022-11-11T06:58:17;101989;;;5.92;96.94
69027;BME280;56080;47.594;19.116;2022-11-11T07:03:23;102006;;;6.08;97.18
69027;BME280;56080;47.594;19.116;2022-11-11T07:08:17;102007;;;6.12;97.89
69027;BME280;56080;47.594;19.116;2022-11-11T07:13:16;102004;;;6.32;97.63
69027;BME280;56080;47.594;19.116;2022-11-11T07:18:17;102022;;;6.38;98.09
69027;BME280;56080;47.594;19.116;2022-11-11T07:23:17;102028;;;6.66;97.76
69027;BME280;56080;47.594;19.116;2022-11-11T07:28:17;102035;;;6.83;96.88
69027;BME280;56080;47.594;19.116;2022-11-11T07:33:24;102043;;;7.11;95.52
69027;BME280;56080;47.594;19.116;2022-11-11T07:38:16;102057;;;7.61;92.61
69027;BME280;56080;47.594;19.116;2022-11-11T07:43:16;102056;;;7.82;91.29
69027;BME280;56080;47.594;19.116;2022-11-11T07:48:17;102051;;;7.86;90.90
69027;BME280;56080;47.594;19.116;2022-11-11T07:53:17;102052;;;7.83;91.85
69027;BME280;56080;47.594;19.116;2022-11-11T07:58:16;102056;;;7.95;91.37
69027;BME280;56080;47.594;19.116;2022-11-11T08:03:17;102063;;;8.22;91.37
69027;BME280;56080;47.594;19.116;2022-11-11T08:08:17;102063;;;8.56;90.17
69027;BME280;56080;47.594;19.116;2022-11-11T08:13:26;102070;;;9.35;88.75
69027;BME280;56080;47.594;19.116;2022-11-11T08:18:16;102065;;;10.28;84.81
69027;BME280;56080;47.594;19.116;2022-11-11T08:23:33;102074;;;10.92;83.11
69027;BME280;56080;47.594;19.116;2022-11-11T08:28:16;102073;;;11.52;80.05
69027;BME280;56080;47.594;19.116;2022-11-11T08:33:27;102062;;;12.20;74.82
69027;BME280;56080;47.594;19.116;2022-11-11T08:38:17;102065;;;12.89;73.10
69027;BME280;56080;47.594;19.116;2022-11-11T08:43:17;102070;;;13.70;70.19
69027;BME280;56080;47.594;19.116;2022-11-11T08:48:16;102084;;;14.16;67.34
69027;BME280;56080;47.594;19.116;2022-11-11T08:53:17;102074;;;14.71;65.31
69027;BME280;56080;47.594;19.116;2022-11-11T08:58:20;102076;;;14.26;65.16
69027;BME280;56080;47.594;19.116;2022-11-11T09:03:18;102076;;;13.57;67.16
69027;BME280;56080;47.594;19.116;2022-11-11T09:08:17;102074;;;13.69;67.59
69027;BME280;56080;47.594;19.116;2022-11-11T09:13:17;102074;;;13.65;68.09
69027;BME280;56080;47.594;19.116;2022-11-11T09:18:17;102070;;;13.38;69.73
69027;BME280;56080;47.594;19.116;2022-11-11T09:23:17;102072;;;12.94;71.53
69027;BME280;56080;47.594;19.116;2022-11-11T09:28:17;102073;;;12.57;73.45
69027;BME280;56080;47.594;19.116;2022-11-11T09:33:18;102066;;;12.42;74.54
69027;BME280;56080;47.594;19.116;2022-11-11T09:38:17;102070;;;12.49;74.78
69027;BME280;56080;47.594;19.116;2022-11-11T09:48:29;102070;;;13.88;70.76
69027;BME280;56080;47.594;19.116;2022-11-11T09:53:18;102067;;;14.65;67.36
69027;BME280;56080;47.594;19.116;2022-11-11T09:58:18;102065;;;14.63;66.81
69027;BME280;56080;47.594;19.116;2022-11-11T10:03:19;102066;;;14.44;67.51
69027;BME280;56080;47.594;19.116;2022-11-11T10:08:19;102053;;;14.34;67.42
69027;BME280;56080;47.594;19.116;2022-11-11T10:13:22;102047;;;14.06;69.15
69027;BME280;56080;47.594;19.116;2022-11-11T10:18:29;102042;;;13.68;69.93
69027;BME280;56080;47.594;19.116;2022-11-11T10:23:18;102035;;;13.63;69.95
69027;BME280;56080;47.594;19.116;2022-11-11T10:28:19;102022;;;13.45;70.03
69027;BME280;56080;47.594;19.116;2022-11-11T10:33:19;102025;;;13.59;70.55
69027;BME280;56080;47.594;19.116;2022-11-11T10:43:20;102038;;;13.39;70.85
69027;BME280;56080;47.594;19.116;2022-11-11T10:48:19;102048;;;13.75;70.73
69027;BME280;56080;47.594;19.116;2022-11-11T10:53:19;102040;;;13.73;70.46
69027;BME280;56080;47.594;19.116;2022-11-11T10:58:21;102022;;;13.70;70.42
69027;BME280;56080;47.594;19.116;2022-11-11T11:08:19;101998;;;13.58;71.46
69027;BME280;56080;47.594;19.116;2022-11-11T11:13:21;101982;;;13.61;72.21
69027;BME280;56080;47.594;19.116;2022-11-11T11:18:17;101984;;;13.59;72.71
69027;BME280;56080;47.594;19.116;2022-11-11T11:23:22;101990;;;13.63;72.30
69027;BME280;56080;47.594;19.116;2022-11-11T11:28:16;101990;;;13.66;72.07
69027;BME280;56080;47.594;19.116;2022-11-11T11:33:17;101984;;;13.58;72.33
69027;BME280;56080;47.594;19.116;2022-11-11T11:38:18;101992;;;13.57;72.36
69027;BME280;56080;47.594;19.116;2022-11-11T11:48:36;102004;;;13.53;72.31
69027;BME280;56080;47.594;19.116;2022-11-11T11:58:22;102002;;;13.34;73.02
69027;BME280;56080;47.594;19.116;2022-11-11T12:13:20;101999;;;13.37;72.78
69027;BME280;56080;47.594;19.116;2022-11-11T12:18:26;101998;;;13.43;72.57
69027;BME280;56080;47.594;19.116;2022-11-11T12:28:22;102010;;;13.45;72.26
69027;BME280;56080;47.594;19.116;2022-11-11T12:33:25;102014;;;13.48;72.47
69027;BME280;56080;47.594;19.116;2022-11-11T13:08:22;101969;;;13.44;72.25
69027;BME280;56080;47.594;19.116;2022-11-11T13:13:27;101968;;;13.48;72.02
69027;BME280;56080;47.594;19.116;2022-11-11T13:18:18;101969;;;13.53;72.20
69027;BME280;56080;47.594;19.116;2022-11-11T13:23:17;101990;;;13.57;71.71
69027;BME280;56080;47.594;19.116;2022-11-11T13:28:18;101988;;;13.48;71.03
69027;BME280;56080;47.594;19.116;2022-11-11T13:33:25;101985;;;13.46;72.14
69027;BME280;56080;47.594;19.116;2022-11-11T13:43:19;101963;;;13.33;72.50
69027;BME280;56080;47.594;19.116;2022-11-11T13:48:34;101969;;;13.27;73.32
69027;BME280;56080;47.594;19.116;2022-11-11T13:53:32;101966;;;13.18;73.61
69027;BME280;56080;47.594;19.116;2022-11-11T13:58:21;101957;;;13.12;73.85
69027;BME280;56080;47.594;19.116;2022-11-11T14:53:18;101931;;;12.29;78.66
69027;BME280;56080;47.594;19.116;2022-11-11T14:58:19;101940;;;12.06;79.45
69027;BME280;56080;47.594;19.116;2022-11-11T15:03:25;101933;;;12.01;79.62
69027;BME280;56080;47.594;19.116;2022-11-11T15:08:21;101935;;;11.92;80.10
69027;BME280;56080;47.594;19.116;2022-11-11T15:28:58;101928;;;11.58;82.55
69027;BME280;56080;47.594;19.116;2022-11-11T15:33:20;101930;;;11.45;83.06
69027;BME280;56080;47.594;19.116;2022-11-11T15:38:17;101936;;;11.32;83.69
69027;BME280;56080;47.594;19.116;2022-11-11T15:43:18;101946;;;11.20;84.85
69027;BME280;56080;47.594;19.116;2022-11-11T15:48:18;101941;;;11.05;85.21
69027;BME280;56080;47.594;19.116;2022-11-11T15:53:21;101943;;;10.93;85.71
69027;BME280;56080;47.594;19.116;2022-11-11T15:58:23;101952;;;10.81;86.54
69027;BME280;56080;47.594;19.116;2022-11-11T16:03:17;101959;;;10.80;86.55
69027;BME280;56080;47.594;19.116;2022-11-11T16:08:19;101961;;;10.69;87.40
69027;BME280;56080;47.594;19.116;2022-11-11T16:23:17;101954;;;10.60;88.14
69027;BME280;56080;47.594;19.116;2022-11-11T16:28:17;101951;;;10.55;88.83
69027;BME280;56080;47.594;19.116;2022-11-11T16:33:17;101946;;;10.51;89.26
69027;BME280;56080;47.594;19.116;2022-11-11T16:38:32;101946;;;10.30;90.17
69027;BME280;56080;47.594;19.116;2022-11-11T16:43:19;101938;;;10.35;90.15
69027;BME280;56080;47.594;19.116;2022-11-11T16:53:26;101947;;;10.23;90.76
69027;BME280;56080;47.594;19.116;2022-11-11T16:58:19;101948;;;10.25;90.70
69027;BME280;56080;47.594;19.116;2022-11-11T17:03:20;101945;;;10.27;90.57
69027;BME280;56080;47.594;19.116;2022-11-11T17:08:48;101945;;;10.10;91.16
69027;BME280;56080;47.594;19.116;2022-11-11T17:13:17;101930;;;9.98;91.99
69027;BME280;56080;47.594;19.116;2022-11-11T17:18:17;101927;;;10.03;91.99
69027;BME280;56080;47.594;19.116;2022-11-11T17:23:17;101933;;;10.10;91.73
69027;BME280;56080;47.594;19.116;2022-11-11T17:28:18;101925;;;9.94;92.68
69027;BME280;56080;47.594;19.116;2022-11-11T17:33:17;101924;;;9.97;92.90
69027;BME280;56080;47.594;19.116;2022-11-11T17:38:18;101921;;;10.03;92.88
69027;BME280;56080;47.594;19.116;2022-11-11T17:48:17;101908;;;9.87;93.36
69027;BME280;56080;47.594;19.116;2022-11-11T17:53:17;101905;;;9.97;93.28
69027;BME280;56080;47.594;19.116;2022-11-11T17:58:18;101915;;;9.89;93.67
69027;BME280;56080;47.594;19.116;2022-11-11T18:03:17;101904;;;9.76;93.89
69027;BME280;56080;47.594;19.116;2022-11-11T18:08:17;101893;;;9.94;93.67
69027;BME280;56080;47.594;19.116;2022-11-11T18:13:17;101893;;;9.77;92.30
69027;BME280;56080;47.594;19.116;2022-11-11T18:18:19;101889;;;9.59;91.70
69027;BME280;56080;47.594;19.116;2022-11-11T18:23:19;101882;;;9.32;91.91
69027;BME280;56080;47.594;19.116;2022-11-11T18:28:17;101881;;;9.26;91.85
69027;BME280;56080;47.594;19.116;2022-11-11T18:33:18;101885;;;9.32;92.79
69027;BME280;56080;47.594;19.116;2022-11-11T18:38:17;101881;;;9.48;92.77
69027;BME280;56080;47.594;19.116;2022-11-11T18:43:17;101872;;;9.57;93.36
69027;BME280;56080;47.594;19.116;2022-11-11T18:48:17;101885;;;9.52;94.06
69027;BME280;56080;47.594;19.116;2022-11-11T18:53:17;101881;;;9.65;93.55
69027;BME280;56080;47.594;19.116;2022-11-11T18:58:17;101884;;;9.46;91.94
69027;BME280;56080;47.594;19.116;2022-11-11T19:03:17;101879;;;9.30;91.63
69027;BME280;56080;47.594;19.116;2022-11-11T19:08:17;101880;;;9.11;93.53
69027;BME280;56080;47.594;19.116;2022-11-11T19:13:17;101879;;;9.34;93.87
69027;BME280;56080;47.594;19.116;2022-11-11T19:18:17;101876;;;9.51;94.21
69027;BME280;56080;47.594;19.116;2022-11-11T19:23:18;101882;;;9.56;94.17
69027;BME280;56080;47.594;19.116;2022-11-11T19:28:17;101883;;;9.61;94.25
69027;BME280;56080;47.594;19.116;2022-11-11T19:33:17;101888;;;9.63;94.01
69027;BME280;56080;47.594;19.116;2022-11-11T19:38:17;101880;;;9.67;93.16
69027;BME280;56080;47.594;19.116;2022-11-11T19:43:17;101877;;;9.41;93.88
69027;BME280;56080;47.594;19.116;2022-11-11T19:48:17;101886;;;9.39;93.97
69027;BME280;56080;47.594;19.116;2022-11-11T19:53:19;101884;;;9.36;93.32
69027;BME280;56080;47.594;19.116;2022-11-11T19:58:17;101884;;;9.31;94.15
69027;BME280;56080;47.594;19.116;2022-11-11T20:03:17;101877;;;9.29;93.58
69027;BME280;56080;47.594;19.116;2022-11-11T20:08:17;101877;;;9.46;93.61
69027;BME280;56080;47.594;19.116;2022-11-11T20:13:18;101872;;;9.49;93.80
69027;BME280;56080;47.594;19.116;2022-11-11T20:18:18;101884;;;9.37;91.81
69027;BME280;56080;47.594;19.116;2022-11-11T20:23:17;101888;;;8.87;91.16
69027;BME280;56080;47.594;19.116;2022-11-11T20:28:17;101899;;;8.80;90.34
69027;BME280;56080;47.594;19.116;2022-11-11T20:33:17;101900;;;8.48;90.76
69027;BME280;56080;47.594;19.116;2022-11-11T20:38:17;101891;;;8.56;91.99
69027;BME280;56080;47.594;19.116;2022-11-11T20:43:17;101893;;;8.73;93.63
69027;BME280;56080;47.594;19.116;2022-11-11T20:48:17;101894;;;8.92;94.42
69027;BME280;56080;47.594;19.116;2022-11-11T20:53:17;101900;;;9.08;94.63
69027;BME280;56080;47.594;19.116;2022-11-11T20:58:17;101910;;;9.04;93.44
69027;BME280;56080;47.594;19.116;2022-11-11T21:03:17;101899;;;8.52;91.19
69027;BME280;56080;47.594;19.116;2022-11-11T21:08:17;101903;;;8.30;91.38
69027;BME280;56080;47.594;19.116;2022-11-11T21:13:17;101896;;;8.12;93.02
69027;BME280;56080;47.594;19.116;2022-11-11T21:18:18;101894;;;7.91;93.86
69027;BME280;56080;47.594;19.116;2022-11-11T21:23:17;101892;;;7.82;92.75
69027;BME280;56080;47.594;19.116;2022-11-11T21:28:17;101888;;;7.90;94.54
69027;BME280;56080;47.594;19.116;2022-11-11T21:33:17;101895;;;7.95;94.74
69027;BME280;56080;47.594;19.116;2022-11-11T21:38:17;101899;;;7.79;94.97
69027;BME280;56080;47.594;19.116;2022-11-11T21:43:17;101891;;;7.68;97.36
69027;BME280;56080;47.594;19.116;2022-11-11T21:53:17;101882;;;7.47;99.10
69027;BME280;56080;47.594;19.116;2022-11-11T21:58:17;101884;;;7.56;99.19
69027;BME280;56080;47.594;19.116;2022-11-11T22:03:17;101891;;;7.46;99.06
69027;BME280;56080;47.594;19.116;2022-11-11T22:08:17;101888;;;7.52;98.72
69027;BME280;56080;47.594;19.116;2022-11-11T22:13:17;101886;;;7.57;98.95
69027;BME280;56080;47.594;19.116;2022-11-11T22:18:17;101885;;;7.50;99.77
69027;BME280;56080;47.594;19.116;2022-11-11T22:23:17;101877;;;7.41;100.00
69027;BME280;56080;47.594;19.116;2022-11-11T22:28:17;101877;;;7.60;99.18
69027;BME280;56080;47.594;19.116;2022-11-11T22:33:17;101881;;;7.47;100.00
69027;BME280;56080;47.594;19.116;2022-11-11T22:38:17;101876;;;7.72;99.58
69027;BME280;56080;47.594;19.116;2022-11-11T22:43:27;101876;;;7.60;99.59
69027;BME280;56080;47.594;19.116;2022-11-11T22:48:17;101863;;;7.37;100.00
69027;BME280;56080;47.594;19.116;2022-11-11T22:53:17;101861;;;7.77;99.85
69027;BME280;56080;47.594;19.116;2022-11-11T22:58:17;101862;;;7.87;99.90
69027;BME280;56080;47.594;19.116;2022-11-11T23:03:17;101856;;;7.82;99.32
69027;BME280;56080;47.594;19.116;2022-11-11T23:08:17;101857;;;7.80;98.77
69027;BME280;56080;47.594;19.116;2022-11-11T23:13:17;101851;;;7.69;99.27
69027;BME280;56080;47.594;19.116;2022-11-11T23:18:17;101851;;;7.59;98.99
69027;BME280;56080;47.594;19.116;2022-11-11T23:23:17;101854;;;7.53;99.20
69027;BME280;56080;47.594;19.116;2022-11-11T23:28:17;101839;;;7.69;98.26
69027;BME280;56080;47.594;19.116;2022-11-11T23:33:17;101850;;;7.77;98.70
69027;BME280;56080;47.594;19.116;2022-11-11T23:38:17;101850;;;7.60;99.21
69027;BME280;56080;47.594;19.116;2022-11-11T23:43:17;101834;;;7.62;98.49
69027;BME280;56080;47.594;19.116;2022-11-11T23:48:17;101836;;;7.47;100.00
69027;BME280;56080;47.594;19.116;2022-11-11T23:53:17;101844;;;7.66;99.97
69027;BME280;56080;47.594;19.116;2022-11-11T23:58:17;101840;;;7.52;100.00
